Weather reports worldwide

Advertisment
Palma/Son Bonet, Spain (8302): temperature & dewpoint: 21.02.2020 15:00:00 - 27.02.2020 15:00:00 (CET)Palma/Son Bonet, Spain (8302): wind speed: 21.02.2020 15:00:00 - 27.02.2020 15:00:00 (CET)Palma/Son Bonet, Spain (8302): wind direction: 21.02.2020 15:00:00 - 27.02.2020 15:00:00 (CET)Palma/Son Bonet, Spain (8302): visibility: 21.02.2020 15:00:00 - 27.02.2020 15:00:00 (CET)
Date & Time tt [°C] td [°C] ff [km/h] ff [kn] dd vv [km]
27.02.2020 15:00:00 17,0 7,0 28 15 SW 10
27.02.2020 14:00:00 17,0 7,0 35 19 SW 10
27.02.2020 13:00:00 18,0 5,0 29 16 SW 10
27.02.2020 12:00:00 18,0 4,0 21 11 WSW 10
27.02.2020 11:00:00 17,0 6,0 18 10 WSW 10
27.02.2020 10:00:00 15,0 6,0 8 4 - 10
27.02.2020 09:00:00 11,0 7,0 4 2 NNE 10
27.02.2020 08:00:00 9,0 6,0 5 3 NW 10
27.02.2020 07:00:00 10,0 5,0 4 2 - 10
27.02.2020 06:00:00 12,0 6,0 8 4 - 10
27.02.2020 05:00:00 11,0 5,0 5 3 WNW 10
27.02.2020 04:00:00 10,0 4,0 9 5 SW 10
27.02.2020 03:00:00 11,0 4,0 8 4 NW 10
27.02.2020 02:00:00 11,0 3,0 2 1 - 10
27.02.2020 01:00:00 13,0 2,0 9 5 WNW 10
27.02.2020 00:00:00 14,0 3,0 11 6 NNW 10
26.02.2020 23:00:00 15,0 3,0 21 11 NW 10
26.02.2020 22:00:00 14,0 3,0 15 8 NW 10
26.02.2020 21:00:00 14,0 3,0 11 6 WNW 10
26.02.2020 20:00:00 15,0 2,0 15 8 NW 10
26.02.2020 19:00:00 15,0 4,0 16 9 NNW 10
26.02.2020 18:00:00 16,0 3,0 16 9 NW 10
26.02.2020 17:00:00 16,0 3,0 29 16 NW 10
26.02.2020 16:00:00 17,0 2,0 18 10 NW 10
26.02.2020 15:00:00 17,0 3,0 22 12 NW 10
26.02.2020 14:00:00 17,0 4,0 34 18 NNW 10
26.02.2020 13:00:00 16,0 2,0 26 14 NW 10
26.02.2020 12:00:00 16,0 1,0 16 9 NW 10
26.02.2020 11:00:00 16,0 2,0 28 15 NW 10
26.02.2020 10:00:00 16,0 4,0 21 11 WNW 10
26.02.2020 09:00:00 15,0 5,0 24 13 NW 10
26.02.2020 08:00:00 15,0 7,0 29 16 NNW 10
26.02.2020 07:00:00 14,0 8,0 29 16 NNW 10
26.02.2020 06:00:00 14,0 8,0 16 9 NW 10
26.02.2020 05:00:00 15,0 8,0 11 6 WNW 10
26.02.2020 04:00:00 15,0 6,0 9 5 NW 10
26.02.2020 03:00:00 12,0 6,0 5 3 W 10
26.02.2020 02:00:00 10,0 6,0 5 3 WNW 10
26.02.2020 01:00:00 11,0 8,0 5 3 NE 10
26.02.2020 00:00:00 11,0 7,0 4 2 - 10
25.02.2020 23:00:00 11,0 4,0 9 5 E 10
25.02.2020 22:00:00 16,0 3,0 9 5 WNW 10
25.02.2020 21:00:00 17,0 2,0 11 6 WNW 10
25.02.2020 20:00:00 17,0 2,0 11 6 NW 10
25.02.2020 19:00:00 17,0 3,0 9 5 WNW 10
25.02.2020 18:00:00 18,0 2,0 16 9 NW 10
25.02.2020 17:00:00 20,0 0,0 24 13 NW 10
25.02.2020 16:00:00 20,0 1,0 22 12 NNW 10
25.02.2020 15:00:00 21,0 1,0 22 12 NW 10
25.02.2020 14:00:00 21,0 3,0 18 10 NW 10
25.02.2020 13:00:00 17,0 13,0 15 8 SSW 10
25.02.2020 12:00:00 17,0 12,0 16 9 SSW 10
25.02.2020 11:00:00 16,0 12,0 11 6 SW 10
25.02.2020 10:00:00 14,0 10,0 5 3 S 10
25.02.2020 09:00:00 9,0 6,0 5 3 N 10
25.02.2020 08:00:00 8,0 5,0 5 3 NNW 10
25.02.2020 07:00:00 7,0 4,0 8 4 N 10
25.02.2020 06:00:00 7,0 3,0 8 4 N 10
25.02.2020 05:00:00 6,0 2,0 8 4 N 10
25.02.2020 04:00:00 6,0 1,0 8 4 N 10
25.02.2020 03:00:00 6,0 1,0 8 4 N 10
25.02.2020 02:00:00 5,0 2,0 5 3 N 10
25.02.2020 01:00:00 7,0 2,0 5 3 N 10
25.02.2020 00:00:00 7,0 3,0 5 3 NNW 10
24.02.2020 23:00:00 8,0 5,0 8 4 N 10
24.02.2020 22:00:00 9,0 7,0 5 3 N 10
24.02.2020 21:00:00 10,0 9,0 5 3 NNW 10
24.02.2020 20:00:00 13,0 11,0 8 4 S 10
24.02.2020 19:00:00 12,0 11,0 9 5 SSW 10
24.02.2020 18:00:00 15,0 11,0 15 8 SSW 10
24.02.2020 17:00:00 16,0 11,0 16 9 S 10
24.02.2020 16:00:00 17,0 11,0 21 11 SSW 10
24.02.2020 15:00:00 18,0 10,0 24 13 SSW 10
24.02.2020 14:00:00 18,0 11,0 24 13 SSW 10
24.02.2020 13:00:00 17,0 11,0 24 13 SSW 10
24.02.2020 12:00:00 17,0 11,0 15 8 SSW 10
24.02.2020 11:00:00 16,0 10,0 11 6 S 10
24.02.2020 10:00:00 13,0 9,0 4 2 - 10
24.02.2020 09:00:00 10,0 6,0 4 2 NE 6
24.02.2020 08:00:00 6,0 4,0 5 3 N 10
24.02.2020 07:00:00 5,0 4,0 8 4 NNE 10
24.02.2020 06:00:00 5,0 4,0 4 2 - 10
24.02.2020 05:00:00 5,0 3,0 8 4 N 10
24.02.2020 04:00:00 6,0 5,0 4 2 - 10
24.02.2020 03:00:00 7,0 5,0 8 4 N 10
24.02.2020 02:00:00 7,0 5,0 5 3 N 10
24.02.2020 01:00:00 7,0 6,0 5 3 N 10
24.02.2020 00:00:00 8,0 7,0 5 3 ENE 10
23.02.2020 23:00:00 10,0 9,0 8 4 NNE 10
23.02.2020 22:00:00 10,0 9,0 5 3 NNE 10
23.02.2020 21:00:00 11,0 10,0 2 1 - 10
23.02.2020 20:00:00 12,0 10,0 9 5 E 10
23.02.2020 19:00:00 14,0 11,0 8 4 SE 10
23.02.2020 18:00:00 16,0 11,0 11 6 SSE 10
23.02.2020 17:00:00 18,0 10,0 9 5 S 10
23.02.2020 16:00:00 19,0 6,0 13 7 S 10
23.02.2020 15:00:00 19,0 7,0 13 7 SSW 10
23.02.2020 14:00:00 18,0 8,0 11 6 SSW 10
23.02.2020 13:00:00 18,0 10,0 13 7 SSW 10
23.02.2020 12:00:00 18,0 9,0 5 3 SSE 10
23.02.2020 11:00:00 16,0 11,0 4 2 NE 10
23.02.2020 10:00:00 14,0 11,0 4 2 - 10
23.02.2020 09:00:00 10,0 8,0 2 1 - 10
23.02.2020 08:00:00 5,0 4,0 5 3 NNE 10
23.02.2020 07:00:00 6,0 4,0 4 2 NNE 10
23.02.2020 06:00:00 6,0 4,0 8 4 N 10
23.02.2020 05:00:00 6,0 4,0 9 5 N 10
23.02.2020 04:00:00 6,0 4,0 8 4 N 10
23.02.2020 03:00:00 6,0 5,0 5 3 NNW 10
23.02.2020 02:00:00 8,0 5,0 9 5 N 10
23.02.2020 01:00:00 8,0 6,0 5 3 NNE 10
23.02.2020 00:00:00 8,0 6,0 9 5 N 10
22.02.2020 23:00:00 10,0 8,0 5 3 N 10
22.02.2020 22:00:00 9,0 8,0 4 2 - 10
22.02.2020 21:00:00 10,0 8,0 2 1 - 10
22.02.2020 20:00:00 11,0 9,0 5 3 NE 10
22.02.2020 19:00:00 13,0 10,0 4 2 SSE 10
22.02.2020 18:00:00 15,0 11,0 9 5 S 10
22.02.2020 17:00:00 16,0 10,0 15 8 S 10
22.02.2020 16:00:00 17,0 10,0 16 9 SSW 10
22.02.2020 15:00:00 17,0 9,0 18 10 SSW 10
22.02.2020 14:00:00 18,0 8,0 16 9 S 10
22.02.2020 13:00:00 17,0 10,0 15 8 S 10
22.02.2020 12:00:00 16,0 10,0 15 8 SSW 10
22.02.2020 11:00:00 15,0 9,0 8 4 SW 10
22.02.2020 10:00:00 13,0 9,0 2 1 - 10
22.02.2020 09:00:00 9,0 6,0 2 1 - 10
22.02.2020 08:00:00 5,0 3,0 4 2 N 10
22.02.2020 07:00:00 5,0 4,0 4 2 NNE 10
22.02.2020 06:00:00 4,0 3,0 5 3 N 10
22.02.2020 05:00:00 5,0 4,0 5 3 NNE 10
22.02.2020 04:00:00 5,0 4,0 5 3 N 10
22.02.2020 03:00:00 7,0 5,0 4 2 - 10
22.02.2020 02:00:00 7,0 5,0 4 2 NNW 10
22.02.2020 01:00:00 8,0 6,0 4 2 - 10
22.02.2020 00:00:00 8,0 6,0 5 3 N 10
21.02.2020 23:00:00 8,0 6,0 8 4 N 10
21.02.2020 22:00:00 9,0 6,0 8 4 NNW 10
21.02.2020 21:00:00 10,0 6,0 8 4 N 10
21.02.2020 20:00:00 11,0 8,0 8 4 ENE 10
21.02.2020 19:00:00 13,0 9,0 8 4 S 10
21.02.2020 18:00:00 16,0 9,0 13 7 SE 10
21.02.2020 17:00:00 17,0 8,0 11 6 SE 10
21.02.2020 16:00:00 18,0 7,0 16 9 E 10
21.02.2020 15:00:00 18,0 6,0 21 11 ENE 10

tt = temperature
td = dewpoint
ff = wind speed
dd = wind direction
vv = visibility

Next stations